Terminal Aerodrome Forecast
Issued by NWS

Home | Current Version | Previous Version | Text Only | Print | Product List | Glossary Off
Versions: 1 2 3 4 5 6 7 8 9 10 11 12 13 14 15 16

194
FTUS42 KMHX 261724
TAFPGV
TAF
KPGV 261724Z 2618/2718 VRB05KT P6SM FEW250
     FM270800 00000KT 5SM BR SCT150
     FM271300 02005KT P6SM SCT060 BKN150
      AMD LTD TO CLD VIS AND WIND=

USA.gov is the U.S. government's official web portal to all federal, state and local government web resources and services.